This is the latest recevied weather packets stored in our database for station/object N6WDO. If no packets are shown the sender has not sent any weather packets the latest 10 day(s).
| Time | Temp. | Humidity | Pressure | Rain* | Wind** | Luminosity | Snow |
|---|---|---|---|---|---|---|---|
| 1778035477 | 10.56° C | 87% | 1016.9 hPa | 0 mm | - | 5 W/m² | - |
| 1778035172 | 11.11° C | 85% | 1016.9 hPa | 0 mm | - | 7 W/m² | - |
| 1778034870 | 11.67° C | 85% | 1016.7 hPa | 0 mm | - | 9 W/m² | - |
| 1778034566 | 11.67° C | 84% | 1016.9 hPa | 0 mm | - | 12 W/m² | - |
| 1778034264 | 12.22° C | 81% | 1016.7 hPa | 0 mm | - | 14 W/m² | - |
| 1778033962 | 12.22° C | 82% | 1016.6 hPa | 0 mm | - | 17 W/m² | - |
| 1778033659 | 12.78° C | 83% | 1016.9 hPa | 0 mm | - | 19 W/m² | - |
| 1778033356 | 13.33° C | 82% | 1016.7 hPa | 0 mm | - | 20 W/m² | - |
| 1778032750 | 13.89° C | 76% | 1016.7 hPa | 0 mm | - | 25 W/m² | - |
| 1778032448 | 13.89° C | 76% | 1016.6 hPa | 0 mm | - | 32 W/m² | - |
| 1778032145 | 13.89° C | 75% | 1016.8 hPa | 0 mm | - | 36 W/m² | - |
| 1778031842 | 13.89° C | 74% | 1016.6 hPa | 0 mm | - | 39 W/m² | - |
| 1778031538 | 13.89° C | 73% | 1016.6 hPa | 0 mm | - | 41 W/m² | - |
| 1778030932 | 13.89° C | 72% | 1016.6 hPa | 0 mm | - | 37 W/m² | - |
| 1778030629 | 13.89° C | 71% | 1016.9 hPa | 0 mm | - | 40 W/m² | - |
| 1778028812 | 14.44° C | 73% | 1016.7 hPa | 0 mm | - | 45 W/m² | - |
| 1778027598 | 15° C | 71% | 1016.6 hPa | 0 mm | - | 83 W/m² | - |
| 1778027294 | 15° C | 70% | 1016.6 hPa | 0 mm | - | 100 W/m² | - |
| 1778025779 | 15° C | 73% | 1016.8 hPa | 0 mm | - | 128 W/m² | - |
| 1778023962 | 14.44° C | 76% | 1016.8 hPa | 0 mm | - | 149 W/m² | - |
| 1778021235 | 15° C | 66% | 1016.8 hPa | 0 mm | - | 109 W/m² | - |
| 1778020326 | 14.44° C | 66% | 1016.8 hPa | 0 mm | - | 112 W/m² | - |
| 1778020022 | 15° C | 66% | 1016.7 hPa | 0 mm | - | 97 W/m² | - |
| 1778019718 | 15° C | 65% | 1016.7 hPa | 0 mm | - | 104 W/m² | - |
| 1778019416 | 15° C | 65% | 1016.5 hPa | 0 mm | - | 120 W/m² | - |
* Rain latest hour (hover to see other rain measurements)
** Current wind speed in m/s (hover to see current wind gust speed)